Impacts TAF Board
For situational awareness. Not to be used for flight planning purposes.
IDs:

KTYR - Tyler/Pounds Fld, TX, US

Issued at 1644 UTC 03 Dec 2021
Updated at 1653 UTC 03 Dec 2021
Potential Impact None Slight Moderate High
Time1646Z 03/17Z 03/18Z 03/19Z 03/20Z 03/21Z 03/22Z 03/23Z 04/00Z 04/01Z 04/02Z 04/03Z 04/04Z 04/05Z>>
Type OBS PRVL PRVL PRVL PRVL PRVL PRVL PRVL PRVL PRVL PRVL PRVL PRVL PRVL
VIS 4 4 4 4 4 4 >6 >6 >6 >6 >6 >6 >6 >6
CIG 9 10 10 10 10 10 100 100 100 100 100 100 100 100
Cover OVC OVC OVC OVC OVC OVC OVC OVC OVC OVC OVC OVC OVC OVC
FltCat IFR MVFR MVFR MVFR MVFR MVFR VFR VFR VFR VFR VFR VFR VFR VFR
WX BR BR BR BR BR BR -- -- -- -- -- -- -- --
WDir 210 220 220 220 220 220 190 190 190 190 190 190 190 190
WSpd 9 9 9 9 9 9 11 11 11 11 11 11 11 11
WGst -- -- -- -- -- -- -- -- -- -- -- -- -- --
WSHgt -- -- -- -- -- -- -- -- -- -- -- -- -- --
WSDir -- -- -- -- -- -- -- -- -- -- -- -- -- --
WSSpd -- -- -- -- -- -- -- -- -- -- -- -- -- --
Raw TAF
KTYR 031644Z 0317/0412 22009KT 4SM BR OVC010
  FM032200 19011KT P6SM OVC100
  FM040600 19008KT P6SM OVC250


Raw METAR
KTYR 031646Z 21009KT 4SM BR OVC009 19/18 A3007 RMK AO2 T01940183
KTYR 031638Z 22009KT 4SM BR OVC010 19/18 A3008 RMK AO2 CIG 007V013 T01940183
KTYR 031559Z 20010KT 4SM BR OVC005 19/18 A3008 RMK AO2 CIG 003V008 T01890183
KTYR 031553Z 20009KT 1SM BR OVC004 19/18 A3008 RMK AO2 CIG 003V008 SLP181 T01890183
KTYR 031510Z 19008KT 1SM BR OVC003 18/18 A3008 RMK AO2 T01830178
KTYR 031453Z 20009KT 4SM BR OVC003 18/17 A3008 RMK AO2 SLP181 T01780172 52010
KTYR 031353Z 19009KT 8SM OVC003 18/17 A3006 RMK AO2 SLP176 T01780172

METAR Board
Radar Display
Forecast Discussion
For situational awareness. Not to be used for flight planning purposes.